Welcome to the New NWS' Forecast!
Most changes are behind the scenes, but click here for differences you might notice.

Terminal Aerodrome Forecast (TAF)

Issued by National Weather Service (NWS)

                            
207 
FTUS42 KKEY 141050 AAC
TAFMTH
TAF AMD
KMTH 141050Z 1411/1506 12009KT P6SM VCTS SCT030CB
      TEMPO 1411/1413 10015G25KT 2SM TSRA BKN025CB
     FM141800 12009KT P6SM FEW020=